Time;durP1;ratioP1;P1;durP2;ratioP2;P2;SDS_P1;SDS_P2;PMS_P1;PMS_P2;Temp;Humidity;BMP_temperature;BMP_pressure;BME280_temperature;BME280_humidity;BME280_pressure;Samples;Min_cycle;Max_cycle;Signal;HPM_P1;HPM_P2
2024/04/10 00:01:26;;;;;;;9.00;1.63;;;8.50;99.90;;;;;;5469245;26;20538;-79
2024/04/10 00:03:52;;;;;;;4.68;1.30;;;8.50;99.90;;;;;;5465727;26;20054;-80
2024/04/10 00:06:19;;;;;;;6.18;1.70;;;8.50;99.90;;;;;;5470792;26;20023;-81
2024/04/10 00:08:46;;;;;;;6.80;1.40;;;8.50;99.90;;;;;;5481386;26;20038;-80
2024/04/10 00:11:13;;;;;;;9.55;1.85;;;8.50;99.90;;;;;;5471073;26;20034;-80
2024/04/10 00:13:40;;;;;;;6.55;1.50;;;8.60;99.90;;;;;;5427235;26;20027;-80
2024/04/10 00:16:07;;;;;;;6.13;1.40;;;8.50;99.90;;;;;;5467110;26;20026;-79
2024/04/10 00:18:36;;;;;;;12.27;1.80;;;8.60;99.90;;;;;;5467344;26;20026;-80
2024/04/10 00:21:03;;;;;;;9.90;1.70;;;8.50;99.90;;;;;;5475689;26;20461;-80
2024/04/10 00:23:30;;;;;;;6.18;1.30;;;8.60;99.90;;;;;;5476866;26;20035;-79
2024/04/10 00:25:58;;;;;;;6.18;1.60;;;8.60;99.90;;;;;;5472877;26;20031;-79
2024/04/10 00:28:26;;;;;;;10.52;1.48;;;8.60;99.90;;;;;;5462231;26;20026;-79
2024/04/10 00:30:53;;;;;;;6.57;1.70;;;8.60;99.90;;;;;;5479564;26;20665;-80
2024/04/10 00:33:21;;;;;;;6.97;1.27;;;8.60;99.90;;;;;;5475846;26;20035;-79
2024/04/10 00:35:55;;;;;;;10.65;1.52;;;8.70;99.90;;;;;;5447133;26;20015;-80
2024/04/10 00:38:22;;;;;;;7.32;1.55;;;8.70;99.90;;;;;;5466773;26;20027;-80
2024/04/10 00:40:59;;;;;;;5.43;1.27;;;8.70;99.90;;;;;;5485239;26;20035;-80
2024/04/10 00:43:27;;;;;;;8.45;1.30;;;8.70;99.90;;;;;;5484179;26;20022;-80
2024/04/10 00:45:57;;;;;;;4.93;1.50;;;8.70;99.90;;;;;;5442797;26;20035;-80
2024/04/10 00:48:24;;;;;;;7.40;1.70;;;8.70;99.90;;;;;;5483981;26;20022;-81
2024/04/10 00:50:52;;;;;;;5.53;1.50;;;8.80;99.90;;;;;;5479342;26;20043;-80
2024/04/10 00:53:19;;;;;;;7.75;1.33;;;8.80;99.90;;;;;;5480382;26;20030;-79
2024/04/10 00:55:47;;;;;;;5.65;1.13;;;8.80;99.90;;;;;;5479820;26;20022;-81
2024/04/10 00:58:15;;;;;;;7.00;1.40;;;8.80;99.90;;;;;;5474075;26;20030;-80
2024/04/10 01:00:42;;;;;;;4.50;1.58;;;8.80;99.90;;;;;;5467779;26;20055;-82
2024/04/10 01:03:10;;;;;;;6.10;1.65;;;8.80;99.90;;;;;;5482374;26;20023;-81
2024/04/10 01:05:37;;;;;;;5.15;1.50;;;8.80;99.90;;;;;;5447841;26;20030;-80
2024/04/10 01:08:05;;;;;;;8.75;1.85;;;8.80;99.90;;;;;;5468890;26;20019;-82
2024/04/10 01:10:32;;;;;;;7.90;1.23;;;8.80;99.90;;;;;;5476559;26;20023;-81
2024/04/10 01:13:00;;;;;;;9.90;2.13;;;8.80;99.90;;;;;;5479525;26;20027;-82
2024/04/10 01:15:27;;;;;;;7.32;1.30;;;8.80;99.90;;;;;;5476172;26;20041;-81
2024/04/10 01:17:54;;;;;;;4.50;0.90;;;8.70;99.90;;;;;;5437931;26;20026;-81
2024/04/10 01:20:21;;;;;;;4.10;0.88;;;8.70;99.90;;;;;;5471985;26;20030;-79
2024/04/10 01:22:50;;;;;;;4.15;1.02;;;9.70;99.90;;;;;;5466678;26;20026;-80
2024/04/10 01:25:17;;;;;;;6.68;1.00;;;8.70;99.90;;;;;;5468828;26;20022;-80
2024/04/10 01:27:44;;;;;;;2.17;0.70;;;8.70;99.90;;;;;;5427041;26;20389;-81
2024/04/10 01:30:11;;;;;;;2.53;0.90;;;8.60;99.90;;;;;;5479119;26;20046;-80
2024/04/10 01:32:37;;;;;;;2.53;0.60;;;8.60;99.90;;;;;;5482083;26;20040;-79
2024/04/10 01:35:05;;;;;;;3.08;1.02;;;8.50;99.90;;;;;;5475766;26;20018;-80
2024/04/10 01:37:32;;;;;;;2.35;0.65;;;8.50;99.90;;;;;;5475304;26;20580;-80
2024/04/10 01:39:59;;;;;;;3.45;0.68;;;8.40;99.90;;;;;;5474816;26;20643;-80
2024/04/10 01:42:26;;;;;;;2.53;0.60;;;8.40;99.90;;;;;;5462451;26;20039;-80
2024/04/10 01:44:53;;;;;;;3.70;0.77;;;8.30;99.90;;;;;;5476689;26;20022;-80
2024/04/10 01:47:19;;;;;;;2.50;0.60;;;8.30;99.90;;;;;;5483296;26;20038;-79
2024/04/10 01:49:46;;;;;;;3.53;0.55;;;8.20;99.90;;;;;;5470685;26;20042;-80
2024/04/10 01:52:13;;;;;;;1.20;0.50;;;8.20;99.90;;;;;;5478090;26;20022;-80
2024/04/10 01:54:40;;;;;;;1.27;0.50;;;8.10;99.90;;;;;;5475682;26;20030;-80
2024/04/10 01:57:07;;;;;;;3.15;0.60;;;8.10;99.90;;;;;;5480284;26;20035;-79
2024/04/10 01:59:33;;;;;;;2.97;0.60;;;8.10;99.90;;;;;;5463984;26;20023;-81
2024/04/10 02:02:00;;;;;;;1.38;0.57;;;8.00;99.90;;;;;;5462341;26;20047;-80
2024/04/10 02:04:29;;;;;;;2.60;0.60;;;8.00;99.90;;;;;;5468093;26;20380;-81
2024/04/10 02:06:55;;;;;;;1.88;0.52;;;8.00;99.90;;;;;;5469796;26;20041;-80
2024/04/10 02:09:22;;;;;;;3.58;0.60;;;8.00;99.90;;;;;;5468330;26;20404;-80
2024/04/10 02:11:49;;;;;;;1.17;0.50;;;8.00;99.90;;;;;;5458768;26;20026;-81
2024/04/10 02:14:16;;;;;;;2.90;0.50;;;8.00;99.90;;;;;;5478493;26;20019;-81
2024/04/10 02:16:43;;;;;;;2.30;0.50;;;8.00;99.90;;;;;;5437147;26;20011;-80
2024/04/10 02:19:10;;;;;;;2.25;0.60;;;8.00;99.90;;;;;;5480735;26;20026;-81
2024/04/10 02:21:38;;;;;;;2.00;0.60;;;8.00;99.90;;;;;;5447340;26;20015;-79
2024/04/10 02:24:08;;;;;;;2.50;0.68;;;8.00;99.90;;;;;;5483723;26;20470;-80
2024/04/10 02:26:35;;;;;;;3.30;0.80;;;8.00;99.90;;;;;;5476425;26;20038;-79
2024/04/10 02:29:02;;;;;;;2.33;0.70;;;8.00;99.90;;;;;;5477200;26;20010;-80
2024/04/10 02:31:29;;;;;;;1.48;0.63;;;8.00;99.90;;;;;;5460545;26;20047;-79
2024/04/10 02:33:57;;;;;;;3.08;1.00;;;8.00;99.90;;;;;;5473940;26;20030;-79
2024/04/10 02:36:25;;;;;;;2.15;0.73;;;8.00;99.90;;;;;;5478342;26;20385;-79
2024/04/10 02:38:51;;;;;;;6.18;0.98;;;8.00;99.90;;;;;;5476436;26;20023;-80
2024/04/10 02:41:18;;;;;;;4.20;1.13;;;8.00;99.90;;;;;;5476110;26;20038;-79
2024/04/10 02:43:47;;;;;;;3.50;0.80;;;8.00;99.90;;;;;;5451277;26;20027;-80
2024/04/10 02:46:16;;;;;;;3.50;0.95;;;8.00;99.90;;;;;;5462066;26;20034;-79
2024/04/10 02:48:44;;;;;;;2.78;0.82;;;8.00;99.90;;;;;;5468894;26;20045;-79
2024/04/10 02:51:11;;;;;;;4.28;1.05;;;8.00;99.90;;;;;;5469132;26;20035;-79
2024/04/10 02:53:38;;;;;;;4.15;1.23;;;7.90;99.90;;;;;;5472128;26;20023;-79
2024/04/10 02:56:05;;;;;;;3.10;1.10;;;8.00;99.90;;;;;;5474969;26;20042;-79
2024/04/10 02:58:32;;;;;;;6.60;1.30;;;8.00;99.90;;;;;;5457307;26;20054;-81
2024/04/10 03:00:59;;;;;;;5.50;1.20;;;8.00;99.90;;;;;;5460191;26;20051;-79
2024/04/10 03:03:26;;;;;;;5.43;1.40;;;8.00;99.90;;;;;;5471126;26;20018;-79
2024/04/10 03:06:03;;;;;;;4.97;1.63;;;8.00;99.90;;;;;;5472512;26;20041;-79
2024/04/10 03:08:30;;;;;;;7.13;1.40;;;8.00;99.90;;;;;;5456722;26;20022;-79
2024/04/10 03:10:57;;;;;;;5.50;1.67;;;8.00;99.90;;;;;;5460553;26;20027;-79
2024/04/10 03:13:24;;;;;;;5.78;1.65;;;8.00;99.90;;;;;;5435072;26;20034;-79
2024/04/10 03:15:51;;;;;;;7.22;1.95;;;8.00;99.90;;;;;;5460505;26;20022;-79
2024/04/10 03:18:18;;;;;;;5.45;1.73;;;8.00;99.90;;;;;;5476237;26;20039;-79
2024/04/10 03:20:46;;;;;;;10.95;2.05;;;8.00;99.90;;;;;;5461859;26;20491;-79
2024/04/10 03:23:13;;;;;;;6.05;2.15;;;8.00;99.90;;;;;;5475613;26;20014;-80
2024/04/10 03:25:40;;;;;;;10.02;1.98;;;7.90;99.90;;;;;;5474253;26;20026;-80
2024/04/10 03:28:06;;;;;;;4.18;1.63;;;7.90;99.90;;;;;;5471396;26;20037;-80
2024/04/10 03:30:33;;;;;;;6.78;1.80;;;7.90;99.90;;;;;;5466180;26;20022;-79
2024/04/10 03:33:00;;;;;;;11.25;2.17;;;7.90;99.90;;;;;;5459388;26;20027;-79
2024/04/10 03:35:28;;;;;;;11.25;2.42;;;7.90;99.90;;;;;;5437702;26;20106;-79
2024/04/10 03:37:55;;;;;;;8.23;1.77;;;7.90;99.90;;;;;;5465114;26;20035;-79
2024/04/10 03:40:22;;;;;;;7.70;2.03;;;7.90;99.90;;;;;;5460587;26;20030;-79
2024/04/10 03:42:49;;;;;;;6.03;2.20;;;7.90;99.90;;;;;;5477690;26;20026;-79
2024/04/10 03:45:16;;;;;;;8.70;2.30;;;7.90;99.90;;;;;;5455502;26;20034;-80
2024/04/10 03:47:43;;;;;;;6.53;2.45;;;7.90;99.90;;;;;;5461615;26;20528;-79
2024/04/10 03:50:10;;;;;;;8.70;2.50;;;8.00;99.90;;;;;;5460574;26;20023;-79
2024/04/10 03:52:37;;;;;;;8.63;2.35;;;8.00;99.90;;;;;;5469749;26;20030;-79
2024/04/10 03:55:04;;;;;;;8.73;2.25;;;8.00;99.90;;;;;;5475355;26;20030;-79
2024/04/10 03:57:31;;;;;;;8.70;2.10;;;8.00;99.90;;;;;;5461293;26;20038;-79
2024/04/10 03:59:58;;;;;;;10.65;2.92;;;8.00;99.90;;;;;;5463636;26;20026;-79
2024/04/10 04:02:25;;;;;;;12.90;2.45;;;7.90;99.90;;;;;;5432712;26;20027;-79
2024/04/10 04:04:53;;;;;;;11.50;2.00;;;7.90;99.90;;;;;;5472187;26;20015;-79
2024/04/10 04:07:19;;;;;;;8.38;2.47;;;7.90;99.90;;;;;;5477683;26;20027;-79
2024/04/10 04:09:47;;;;;;;7.78;2.13;;;7.90;99.90;;;;;;5458992;26;20037;-79
2024/04/10 04:12:13;;;;;;;6.45;2.03;;;7.90;99.90;;;;;;5472811;26;20035;-79
2024/04/10 04:14:40;;;;;;;7.72;1.80;;;7.90;99.90;;;;;;5434249;26;20031;-79
2024/04/10 04:17:07;;;;;;;10.25;2.60;;;7.80;99.90;;;;;;5474597;26;20026;-79
2024/04/10 04:19:34;;;;;;;9.57;2.58;;;7.80;99.90;;;;;;5463173;26;20031;-79
2024/04/10 04:22:01;;;;;;;8.32;2.03;;;7.80;99.90;;;;;;5446310;26;20030;-79
2024/04/10 04:24:27;;;;;;;10.23;2.42;;;7.70;99.90;;;;;;5477705;26;20053;-79
2024/04/10 04:26:56;;;;;;;11.50;2.65;;;7.70;99.90;;;;;;5445980;26;20027;-79
2024/04/10 04:29:23;;;;;;;10.00;2.08;;;7.70;99.90;;;;;;5476485;26;20030;-79
2024/04/10 04:31:50;;;;;;;9.52;1.80;;;7.60;99.90;;;;;;5457431;26;20027;-79
2024/04/10 04:34:17;;;;;;;9.43;2.30;;;7.60;99.90;;;;;;5473873;26;20015;-79
2024/04/10 04:36:44;;;;;;;12.35;2.50;;;7.60;99.90;;;;;;5447379;26;20026;-79
2024/04/10 04:39:13;;;;;;;11.88;2.50;;;7.60;99.90;;;;;;5475074;26;20053;-79
2024/04/10 04:41:40;;;;;;;17.92;3.35;;;7.60;99.90;;;;;;5471624;26;20027;-79
2024/04/10 04:44:08;;;;;;;9.90;2.28;;;7.50;99.90;;;;;;5468138;26;20046;-79
2024/04/10 04:46:34;;;;;;;10.65;2.38;;;7.50;99.90;;;;;;5470504;26;20026;-79
2024/04/10 04:49:01;;;;;;;10.68;2.47;;;7.50;99.90;;;;;;5462051;26;20027;-79
2024/04/10 04:51:28;;;;;;;12.15;1.98;;;7.50;99.90;;;;;;5458721;26;20034;-79
2024/04/10 04:53:55;;;;;;;9.15;2.13;;;7.50;99.90;;;;;;5466955;26;20035;-79
2024/04/10 04:56:22;;;;;;;9.18;2.35;;;7.40;99.90;;;;;;5477962;26;20025;-79
2024/04/10 04:58:48;;;;;;;8.40;2.17;;;7.40;99.90;;;;;;5430334;26;20033;-79
2024/04/10 05:01:15;;;;;;;10.77;2.50;;;7.40;99.90;;;;;;5475172;26;20039;-79
2024/04/10 05:06:27;;;;;;;9.98;2.67;;;7.30;99.90;;;;;;5456658;26;20042;-79
2024/04/10 05:08:54;;;;;;;8.50;2.28;;;7.30;99.90;;;;;;5465763;26;20038;-79
2024/04/10 05:11:21;;;;;;;8.60;2.38;;;7.30;99.90;;;;;;5476334;26;20030;-79
2024/04/10 05:13:48;;;;;;;15.73;2.45;;;7.30;99.90;;;;;;5470669;26;20024;-79
2024/04/10 05:16:16;;;;;;;10.07;3.00;;;7.90;99.90;;;;;;5466600;26;20015;-79
2024/04/10 05:18:43;;;;;;;8.32;2.65;;;7.30;99.90;;;;;;5474451;26;20481;-79
2024/04/10 05:21:09;;;;;;;11.52;2.97;;;7.30;99.90;;;;;;5470067;26;20010;-79
2024/04/10 05:23:36;;;;;;;13.27;2.92;;;7.30;99.90;;;;;;5459795;26;20031;-79
2024/04/10 05:26:04;;;;;;;12.43;2.60;;;7.30;99.90;;;;;;5462339;26;20042;-79
2024/04/10 05:28:31;;;;;;;11.77;2.90;;;7.30;99.90;;;;;;5468609;26;20042;-79
2024/04/10 05:31:08;;;;;;;8.02;3.00;;;7.30;99.90;;;;;;5469937;26;20012;-79
2024/04/10 05:33:35;;;;;;;11.73;2.97;;;7.30;99.90;;;;;;5470351;26;20025;-79
2024/04/10 05:36:04;;;;;;;10.35;3.03;;;7.30;99.90;;;;;;5473204;26;20026;-79
2024/04/10 05:38:31;;;;;;;14.73;3.78;;;7.30;99.90;;;;;;5466062;26;20042;-79
2024/04/10 05:40:59;;;;;;;17.38;3.47;;;7.40;99.90;;;;;;5471099;26;20026;-79
2024/04/10 05:43:26;;;;;;;18.90;3.75;;;7.40;99.90;;;;;;5469892;26;20051;-79
2024/04/10 05:45:56;;;;;;;15.23;3.70;;;7.40;99.90;;;;;;5469474;26;20035;-79
2024/04/10 05:48:23;;;;;;;10.00;3.35;;;7.40;99.90;;;;;;5435419;26;20026;-79
2024/04/10 05:50:59;;;;;;;11.00;2.95;;;7.40;99.90;;;;;;5466746;26;20022;-79
2024/04/10 05:53:26;;;;;;;12.10;3.33;;;7.50;99.90;;;;;;5473464;26;20038;-79
2024/04/10 05:55:53;;;;;;;14.10;3.58;;;7.50;99.90;;;;;;5451293;26;20035;-79
2024/04/10 05:58:20;;;;;;;13.85;3.97;;;7.50;99.90;;;;;;5454181;26;20019;-79
2024/04/10 06:00:46;;;;;;;15.80;3.67;;;7.50;99.90;;;;;;5461333;26;20019;-79
2024/04/10 06:03:13;;;;;;;17.45;4.32;;;7.60;99.90;;;;;;5465453;26;20046;-79
2024/04/10 06:05:41;;;;;;;14.77;3.75;;;7.70;99.90;;;;;;5462159;26;20027;-79
2024/04/10 06:08:08;;;;;;;12.18;4.22;;;7.90;99.90;;;;;;5472793;26;20031;-80
2024/04/10 06:10:35;;;;;;;16.33;3.72;;;8.10;99.90;;;;;;5476269;26;20014;-79
2024/04/10 06:13:02;;;;;;;17.85;4.70;;;8.20;99.90;;;;;;5429510;26;20043;-79
2024/04/10 06:15:28;;;;;;;15.60;4.68;;;8.40;99.90;;;;;;5476257;26;20026;-79
2024/04/10 06:17:55;;;;;;;20.25;5.65;;;8.60;99.90;;;;;;5463468;26;20043;-79
2024/04/10 06:20:23;;;;;;;17.15;5.00;;;8.80;99.90;;;;;;5482623;26;20381;-79
2024/04/10 06:22:49;;;;;;;12.07;4.20;;;8.90;99.90;;;;;;5467288;26;20030;-79
2024/04/10 06:25:16;;;;;;;18.27;4.50;;;9.00;99.90;;;;;;5443587;26;20043;-79
2024/04/10 06:27:43;;;;;;;18.98;5.32;;;9.10;99.90;;;;;;5428988;26;20486;-79
2024/04/10 06:30:10;;;;;;;18.58;5.63;;;9.10;99.90;;;;;;5459661;26;20007;-79
2024/04/10 06:32:37;;;;;;;16.60;4.03;;;9.20;99.90;;;;;;5457271;26;20023;-79
2024/04/10 06:35:04;;;;;;;19.05;5.38;;;9.30;99.90;;;;;;5457087;26;20377;-79
2024/04/10 06:37:56;;;;;;;21.23;4.85;;;9.30;99.90;;;;;;5466406;26;20023;-79
2024/04/10 06:40:23;;;;;;;13.15;4.93;;;9.40;99.90;;;;;;5456831;26;20027;-81
2024/04/10 06:42:50;;;;;;;14.63;4.55;;;9.40;99.90;;;;;;5452199;26;19995;-79
2024/04/10 06:45:17;;;;;;;12.95;5.07;;;9.50;99.90;;;;;;5458338;26;20031;-79
2024/04/10 06:47:44;;;;;;;17.77;6.40;;;9.60;99.90;;;;;;5453825;26;19999;-79
2024/04/10 06:50:10;;;;;;;14.10;5.50;;;9.60;99.90;;;;;;5454479;26;20031;-79
2024/04/10 06:52:37;;;;;;;16.90;4.72;;;9.70;99.90;;;;;;5468916;26;20018;-79
2024/04/10 06:55:06;;;;;;;14.95;5.68;;;9.80;99.90;;;;;;5431170;26;19999;-79
2024/04/10 06:57:33;;;;;;;21.63;5.65;;;9.80;99.90;;;;;;5457425;26;19994;-80
2024/04/10 07:00:03;;;;;;;17.95;4.90;;;9.90;99.90;;;;;;5472929;26;20477;-79
2024/04/10 07:02:30;;;;;;;17.00;5.63;;;9.90;99.90;;;;;;5476079;26;20030;-80
2024/04/10 07:04:57;;;;;;;17.42;5.90;;;9.90;99.90;;;;;;5447995;26;19994;-80
2024/04/10 07:07:24;;;;;;;23.52;6.25;;;10.00;99.90;;;;;;5482085;26;20041;-80
2024/04/10 07:09:54;;;;;;;16.65;5.38;;;10.00;99.90;;;;;;5466557;26;20336;-81
2024/04/10 07:12:20;;;;;;;19.15;6.38;;;10.00;99.90;;;;;;5468105;26;20034;-80
2024/04/10 07:14:47;;;;;;;19.70;5.32;;;10.00;99.90;;;;;;5473565;26;20648;-79
2024/04/10 07:17:14;;;;;;;20.08;5.68;;;10.00;99.90;;;;;;5463650;26;20022;-79
2024/04/10 07:19:41;;;;;;;18.42;5.97;;;10.00;99.90;;;;;;5456154;26;20050;-80
2024/04/10 07:22:08;;;;;;;19.95;5.78;;;10.10;99.90;;;;;;5475826;26;20054;-80
2024/04/10 07:24:36;;;;;;;16.20;5.57;;;10.10;99.90;;;;;;5469933;26;20030;-79
2024/04/10 07:27:04;;;;;;;22.00;5.97;;;10.20;99.90;;;;;;5454588;26;20039;-79
2024/04/10 07:29:31;;;;;;;14.43;5.35;;;10.20;99.90;;;;;;5425354;26;20022;-79
2024/04/10 07:31:57;;;;;;;17.20;5.60;;;10.30;99.90;;;;;;5463040;26;20043;-79
2024/04/10 07:34:24;;;;;;;19.08;4.80;;;10.50;99.90;;;;;;5457742;26;20035;-80
2024/04/10 07:36:51;;;;;;;12.85;5.18;;;10.60;99.90;;;;;;5464027;26;20039;-79
2024/04/10 07:39:19;;;;;;;18.48;5.68;;;10.60;99.90;;;;;;5457436;26;20023;-83
2024/04/10 07:41:47;;;;;;;17.63;5.30;;;10.70;99.90;;;;;;5488534;26;20053;-80
2024/04/10 07:44:16;;;;;;;12.35;4.82;;;10.70;99.90;;;;;;5483639;26;20018;-79
2024/04/10 07:46:44;;;;;;;17.35;5.05;;;10.80;99.90;;;;;;5462168;26;20556;-79
2024/04/10 07:49:11;;;;;;;13.07;4.50;;;11.50;99.90;;;;;;5469199;26;20027;-81
2024/04/10 07:51:38;;;;;;;16.13;4.82;;;11.30;99.90;;;;;;5456207;26;20027;-79
2024/04/10 07:54:04;;;;;;;18.33;5.05;;;11.00;99.90;;;;;;5467905;26;20035;-79
2024/04/10 07:56:31;;;;;;;16.00;4.38;;;11.10;99.90;;;;;;5436942;26;20023;-79
2024/04/10 07:58:58;;;;;;;18.55;5.07;;;11.10;99.90;;;;;;5468170;26;20036;-81
2024/04/10 08:01:25;;;;;;;16.45;4.47;;;11.20;99.90;;;;;;5456994;26;20026;-79
2024/04/10 08:03:52;;;;;;;16.00;4.57;;;11.20;99.90;;;;;;5464049;26;20035;-81
2024/04/10 08:06:19;;;;;;;12.93;5.05;;;11.30;99.90;;;;;;5466530;26;20030;-80
2024/04/10 08:08:46;;;;;;;14.55;4.78;;;11.30;99.90;;;;;;5470095;26;20019;-81
2024/04/10 08:11:17;;;;;;;11.63;4.70;;;11.30;99.90;;;;;;5468415;26;20022;-79
2024/04/10 08:13:44;;;;;;;16.80;4.97;;;11.20;99.90;;;;;;5478615;26;20226;-79
2024/04/10 08:16:11;;;;;;;14.75;3.67;;;11.20;99.90;;;;;;5455020;26;20035;-79
2024/04/10 08:18:43;;;;;;;15.30;4.30;;;11.20;99.90;;;;;;5471815;26;20018;-81
2024/04/10 08:21:13;;;;;;;12.50;3.55;;;11.20;99.90;;;;;;5455109;26;20026;-79
2024/04/10 08:23:42;;;;;;;12.95;3.75;;;11.20;99.90;;;;;;5470961;26;20035;-80
2024/04/10 08:26:13;;;;;;;17.55;5.10;;;11.20;99.90;;;;;;5485697;26;20022;-79
2024/04/10 08:28:45;;;;;;;11.43;3.65;;;11.20;99.90;;;;;;5477299;26;20023;-79
2024/04/10 08:31:16;;;;;;;7.75;3.85;;;11.20;99.90;;;;;;5460616;26;20023;-79
2024/04/10 08:33:46;;;;;;;7.90;3.72;;;11.20;99.90;;;;;;5462095;26;20026;-79
2024/04/10 08:36:14;;;;;;;12.68;4.15;;;11.20;99.90;;;;;;5477426;26;20378;-80
2024/04/10 08:38:42;;;;;;;15.88;4.05;;;11.20;99.90;;;;;;5450093;26;20364;-82
2024/04/10 08:41:16;;;;;;;11.77;3.40;;;11.30;99.90;;;;;;5478188;26;20035;-79
2024/04/10 08:43:50;;;;;;;;;;;11.50;99.90;;;;;;5473261;26;20022;-79
2024/04/10 08:46:23;;;;;;;11.40;3.78;;;11.40;99.90;;;;;;5485785;26;19957;-80
2024/04/10 08:48:52;;;;;;;12.15;4.18;;;11.40;99.90;;;;;;5452830;26;20384;-80
2024/04/10 08:51:22;;;;;;;14.30;3.65;;;11.40;99.90;;;;;;5470273;26;20383;-80
2024/04/10 08:53:52;;;;;;;9.75;3.58;;;11.30;99.90;;;;;;5458930;26;20470;-81
2024/04/10 08:56:19;;;;;;;7.00;3.25;;;11.40;99.90;;;;;;5453998;26;20374;-79
2024/04/10 08:58:46;;;;;;;10.80;4.07;;;11.30;99.90;;;;;;5476205;26;20465;-79
2024/04/10 09:01:33;;;;;;;13.40;5.20;;;11.40;99.90;;;;;;5473647;26;20030;-79
2024/04/10 09:04:11;;;;;;;8.80;3.10;;;11.50;99.90;;;;;;5467265;26;20026;-79
2024/04/10 09:06:38;;;;;;;11.48;3.70;;;11.60;99.90;;;;;;5461213;26;20057;-80
2024/04/10 09:09:08;;;;;;;10.25;3.75;;;11.60;99.90;;;;;;5478184;26;20022;-79
2024/04/10 09:11:37;;;;;;;10.98;3.28;;;11.80;99.90;;;;;;5474153;26;20023;-79
2024/04/10 09:14:05;;;;;;;16.83;4.70;;;11.50;99.90;;;;;;5467748;26;20467;-79
2024/04/10 09:16:33;;;;;;;14.68;4.10;;;11.50;99.90;;;;;;5464962;26;20581;-79
2024/04/10 09:19:17;;;;;;;13.93;3.40;;;11.40;99.90;;;;;;5468690;26;20480;-79
2024/04/10 09:22:04;;;;;;;17.42;3.63;;;11.30;99.90;;;;;;5456973;26;20028;-79
2024/04/10 09:24:30;;;;;;;13.07;3.80;;;11.40;99.90;;;;;;5470316;26;20023;-79
2024/04/10 09:26:58;;;;;;;7.13;3.38;;;11.40;99.90;;;;;;5483474;26;20037;-79
2024/04/10 09:29:28;;;;;;;16.73;4.95;;;11.50;99.90;;;;;;5475001;26;20023;-79
2024/04/10 09:32:04;;;;;;;17.17;5.75;;;11.50;99.90;;;;;;5475278;26;20026;-79
2024/04/10 09:34:32;;;;;;;12.95;4.80;;;11.50;99.90;;;;;;5471552;26;20185;-81
2024/04/10 09:37:01;;;;;;;12.82;4.63;;;11.60;99.90;;;;;;5467499;26;20022;-80
2024/04/10 09:39:28;;;;;;;11.13;3.65;;;11.60;99.90;;;;;;5476569;26;20030;-81
2024/04/10 09:41:58;;;;;;;10.27;3.92;;;11.60;99.90;;;;;;5470146;26;20035;-80
2024/04/10 09:44:30;;;;;;;15.00;4.88;;;11.70;99.90;;;;;;5476033;26;20026;-79
2024/04/10 09:47:02;;;;;;;14.90;3.88;;;11.70;99.90;;;;;;5476769;26;20034;-80
2024/04/10 09:49:42;;;;;;;10.70;4.35;;;11.80;99.90;;;;;;5469782;26;20036;-80
2024/04/10 09:52:11;;;;;;;10.27;3.53;;;11.80;99.90;;;;;;5432297;26;20027;-79
2024/04/10 09:54:39;;;;;;;16.80;4.13;;;11.90;99.90;;;;;;5478019;26;20042;-80
2024/04/10 09:57:10;;;;;;;15.85;4.30;;;11.90;99.90;;;;;;5475312;26;20039;-80
2024/04/10 09:59:37;;;;;;;18.10;5.15;;;11.90;99.90;;;;;;5457904;26;20022;-80
2024/04/10 10:02:18;;;;;;;14.43;4.22;;;11.90;99.90;;;;;;5477513;26;20015;-80
2024/04/10 10:04:46;;;;;;;15.32;4.70;;;12.00;99.90;;;;;;5429821;26;20030;-80
2024/04/10 10:07:23;;;;;;;12.70;4.30;;;11.90;99.90;;;;;;5472560;26;20019;-81
2024/04/10 10:10:07;;;;;;;17.75;4.63;;;11.90;99.90;;;;;;5465335;26;20054;-79
2024/04/10 10:12:34;;;;;;;14.15;4.20;;;11.90;99.90;;;;;;5472211;26;20019;-80
2024/04/10 10:15:09;;;;;;;12.73;4.05;;;11.90;99.90;;;;;;5455062;26;20038;-79
2024/04/10 10:17:36;;;;;;;8.10;2.90;;;12.00;99.90;;;;;;5447159;26;20046;-79
2024/04/10 10:20:04;;;;;;;14.20;3.70;;;12.00;99.90;;;;;;5483896;26;20026;-81
2024/04/10 10:22:30;;;;;;;14.57;4.03;;;12.10;99.90;;;;;;5469343;26;20022;-80
2024/04/10 10:24:59;;;;;;;11.05;3.60;;;12.10;99.90;;;;;;5471619;26;20027;-80
2024/04/10 10:27:27;;;;;;;14.38;3.85;;;12.20;99.90;;;;;;5452157;26;21014;-79
2024/04/10 10:30:06;;;;;;;11.15;3.85;;;12.30;99.90;;;;;;5435152;26;20493;-79
2024/04/10 10:32:33;;;;;;;13.45;3.85;;;12.40;99.90;;;;;;5444281;26;20038;-80
2024/04/10 10:35:09;;;;;;;14.20;4.20;;;12.40;99.90;;;;;;5461746;26;20470;-80
2024/04/10 10:37:36;;;;;;;9.10;3.28;;;12.50;99.90;;;;;;5482912;26;20026;-80
2024/04/10 10:40:06;;;;;;;8.55;3.45;;;12.50;99.90;;;;;;5463480;26;20030;-79
2024/04/10 10:42:33;;;;;;;7.68;2.30;;;12.50;99.90;;;;;;5488577;26;20037;-79
2024/04/10 10:45:06;;;;;;;10.45;3.97;;;12.60;99.90;;;;;;5469092;26;20023;-79
2024/04/10 10:47:41;;;;;;;11.50;3.72;;;12.70;99.90;;;;;;5448757;26;20027;-80
2024/04/10 10:50:07;;;;;;;7.90;2.33;;;12.80;99.90;;;;;;5473599;26;20026;-79
2024/04/10 10:52:34;;;;;;;8.63;3.17;;;12.90;99.90;;;;;;5444173;26;19999;-80
2024/04/10 10:55:07;;;;;;;9.25;2.78;;;12.90;99.90;;;;;;5472153;26;20015;-80
2024/04/10 10:57:34;;;;;;;11.48;3.67;;;12.90;99.90;;;;;;5458298;26;20022;-78
2024/04/10 11:00:12;;;;;;;12.18;3.10;;;13.00;99.90;;;;;;5440584;26;20039;-79
2024/04/10 11:02:41;;;;;;;10.88;3.38;;;12.90;99.90;;;;;;5452153;26;20034;-78
2024/04/10 11:05:14;;;;;;;13.13;3.33;;;12.90;99.90;;;;;;5447846;26;20474;-79
2024/04/10 11:07:41;;;;;;;9.93;3.38;;;13.00;99.90;;;;;;5457885;26;20027;-78
2024/04/10 11:10:12;;;;;;;8.32;2.90;;;13.10;99.90;;;;;;5473286;26;20022;-78
2024/04/10 11:12:39;;;;;;;10.40;3.35;;;13.30;99.90;;;;;;5468486;26;20009;-79
2024/04/10 11:15:11;;;;;;;4.80;2.13;;;13.50;99.90;;;;;;5454437;26;20035;-79
2024/04/10 11:17:38;;;;;;;6.22;2.90;;;13.70;99.90;;;;;;5442812;26;20032;-79
2024/04/10 11:20:10;;;;;;;12.55;3.20;;;13.80;99.90;;;;;;5456898;26;20026;-79
2024/04/10 11:22:38;;;;;;;9.15;3.08;;;13.60;99.90;;;;;;5445584;26;20027;-79
2024/04/10 11:25:05;;;;;;;15.20;3.20;;;13.30;99.90;;;;;;5471906;26;20034;-79
2024/04/10 11:27:33;;;;;;;10.15;3.13;;;13.30;99.90;;;;;;5432529;26;20032;-79
2024/04/10 11:30:00;;;;;;;11.27;3.03;;;13.30;99.90;;;;;;5461179;26;20376;-78
2024/04/10 11:32:26;;;;;;;6.22;2.17;;;13.40;99.90;;;;;;5465998;26;20026;-79
2024/04/10 11:36:30;;;;;;;7.72;2.10;;;13.40;99.90;;;;;;5573939;25;20417;-79
2024/04/10 11:38:57;;;;;;;8.88;3.13;;;13.60;99.90;;;;;;5540170;25;20036;-78
2024/04/10 11:41:24;;;;;;;6.75;2.15;;;13.80;99.90;;;;;;5553366;25;20044;-79
2024/04/10 11:43:51;;;;;;;9.02;2.60;;;14.00;99.90;;;;;;5557689;25;20026;-78
2024/04/10 11:46:19;;;;;;;14.77;3.25;;;14.30;99.90;;;;;;5524565;25;20378;-79
2024/04/10 11:48:47;;;;;;;7.35;2.20;;;14.20;99.90;;;;;;5557596;25;20045;-78
2024/04/10 11:51:15;;;;;;;6.97;1.95;;;14.20;99.90;;;;;;5558672;25;20022;-78
2024/04/10 11:53:42;;;;;;;6.80;2.20;;;14.10;99.90;;;;;;5543935;25;20030;-78
2024/04/10 11:56:08;;;;;;;9.55;2.65;;;14.00;99.90;;;;;;5556963;25;20021;-77
2024/04/10 11:58:35;;;;;;;8.73;2.13;;;14.10;99.90;;;;;;5548415;25;20037;-78
2024/04/10 12:01:03;;;;;;;8.70;2.70;;;13.90;99.90;;;;;;5558139;25;20036;-78
2024/04/10 12:03:30;;;;;;;6.38;2.13;;;13.90;99.90;;;;;;5542398;25;20127;-78
2024/04/10 12:06:04;;;;;;;12.73;3.10;;;13.80;99.90;;;;;;5540726;25;20029;-77
2024/04/10 12:08:32;;;;;;;8.20;2.53;;;13.80;99.90;;;;;;5556643;25;20033;-78
2024/04/10 12:11:00;;;;;;;9.57;2.60;;;13.80;99.90;;;;;;5543353;25;20029;-77
2024/04/10 12:13:28;;;;;;;8.50;2.70;;;13.90;99.90;;;;;;5554042;25;20037;-78
2024/04/10 12:15:55;;;;;;;12.50;3.00;;;13.80;99.90;;;;;;5549017;25;20149;-77
2024/04/10 12:18:22;;;;;;;13.13;2.60;;;13.80;99.90;;;;;;5525636;25;20044;-78
2024/04/10 12:20:49;;;;;;;10.60;3.20;;;13.80;99.90;;;;;;5541212;25;20025;-79
2024/04/10 12:23:15;;;;;;;8.85;2.33;;;13.90;99.90;;;;;;5551401;25;20036;-77
2024/04/10 12:25:42;;;;;;;8.48;2.47;;;14.00;99.90;;;;;;5545684;25;20456;-79
2024/04/10 12:28:09;;;;;;;9.35;2.97;;;14.10;99.90;;;;;;5541008;25;20364;-78
2024/04/10 12:30:36;;;;;;;9.30;2.40;;;13.90;99.90;;;;;;5534270;25;20022;-78
2024/04/10 12:33:03;;;;;;;8.57;2.92;;;14.00;99.90;;;;;;5519060;25;20021;-78
2024/04/10 12:38:16;;;;;;;8.80;2.25;;;14.10;99.90;;;;;;5541739;25;20037;-77
2024/04/10 12:40:55;;;;;;;9.10;3.25;;;13.90;99.90;;;;;;5545049;25;20036;-78
2024/04/10 12:43:22;;;;;;;10.27;3.55;;;14.00;99.90;;;;;;5545622;25;20029;-78
2024/04/10 12:45:49;;;;;;;5.15;2.42;;;14.00;99.90;;;;;;5536055;25;20482;-78
2024/04/10 12:48:16;;;;;;;6.80;2.60;;;14.10;99.90;;;;;;5541083;25;20464;-79
2024/04/10 12:50:50;;;;;;;7.05;2.38;;;14.10;99.90;;;;;;5531768;25;20024;-78
2024/04/10 12:53:17;;;;;;;10.38;2.45;;;14.20;99.90;;;;;;5530286;25;20022;-77
2024/04/10 12:55:53;;;;;;;7.40;2.65;;;14.30;99.90;;;;;;5552355;25;20030;-78
2024/04/10 12:58:21;;;;;;;5.38;1.67;;;14.80;99.90;;;;;;5543347;25;20376;-78
2024/04/10 13:00:49;;;;;;;6.32;2.08;;;14.50;99.90;;;;;;5561475;25;20869;-77